Time;durP1;ratioP1;P1;durP2;ratioP2;P2;SDS_P1;SDS_P2;PMS_P1;PMS_P2;Temp;Humidity;BMP_temperature;BMP_pressure;BME280_temperature;BME280_humidity;BME280_pressure;Samples;Min_cycle;Max_cycle;Signal;HPM_P1;HPM_P2
2022/05/03 00:01:50;;;;;;;4.03;1.20;;;;;;;;;;5037371;28;20033;-70
2022/05/03 00:04:30;;;;;;;6.32;1.20;;;;;;;;;;5020721;28;20603;-70
2022/05/03 00:07:03;;;;;;;4.82;1.30;;;;;;;;;;5038702;28;20781;-71
2022/05/03 00:09:39;;;;;;;4.45;1.23;;;;;;;;;;5037739;28;20049;-70
2022/05/03 00:12:09;;;;;;;5.65;1.40;;;;;;;;;;5037275;28;20509;-70
2022/05/03 00:14:42;;;;;;;4.55;1.27;;;;;;;;;;5037793;28;20049;-71
2022/05/03 00:17:10;;;;;;;11.13;1.75;;;;;;;;;;5037969;28;20045;-70
2022/05/03 00:19:37;;;;;;;4.53;1.27;;;;;;;;;;5037335;28;20593;-69
2022/05/03 00:22:04;;;;;;;4.43;1.42;;;;;;;;;;5036311;28;20444;-69
2022/05/03 00:24:31;;;;;;;6.60;1.33;;;;;;;;;;5036765;28;20065;-69
2022/05/03 00:26:58;;;;;;;5.40;1.38;;;;;;;;;;5020660;28;20063;-69
2022/05/03 00:29:25;;;;;;;4.22;1.35;;;;;;;;;;5037684;28;20107;-69
2022/05/03 00:31:52;;;;;;;5.18;1.70;;;;;;;;;;5037059;28;20055;-65
2022/05/03 00:34:19;;;;;;;5.90;1.63;;;;;;;;;;5038750;28;21729;-68
2022/05/03 00:36:46;;;;;;;6.03;2.00;;;;;;;;;;5038127;28;20444;-68
2022/05/03 00:39:14;;;;;;;2.55;0.93;;;;;;;;;;5038008;28;20049;-68
2022/05/03 00:41:51;;;;;;;6.28;1.50;;;;;;;;;;5037627;28;20045;-64
2022/05/03 00:47:10;;;;;;;6.10;1.20;;;;;;;;;;5037236;28;20107;-67
2022/05/03 00:49:46;;;;;;;3.97;1.20;;;;;;;;;;5020079;28;20049;-66
2022/05/03 00:52:13;;;;;;;5.20;1.13;;;;;;;;;;5037426;28;20484;-66
2022/05/03 00:54:58;;;;;;;3.67;1.25;;;;;;;;;;5037205;28;20076;-69
2022/05/03 00:57:46;;;;;;;6.78;1.50;;;;;;;;;;5036805;28;20405;-67
2022/05/03 01:00:14;;;;;;;8.23;1.40;;;;;;;;;;5037697;28;20041;-67
2022/05/03 01:02:41;;;;;;;3.92;1.20;;;;;;;;;;5036799;28;20049;-67
2022/05/03 01:05:10;;;;;;;9.75;1.58;;;;;;;;;;5037602;28;20040;-69
2022/05/03 01:07:53;;;;;;;5.40;1.40;;;;;;;;;;5037459;28;20037;-69
2022/05/03 01:10:33;;;;;;;5.05;1.20;;;;;;;;;;5037373;28;20057;-68
2022/05/03 01:13:15;;;;;;;3.50;1.70;;;;;;;;;;5035094;28;20055;-64
2022/05/03 01:15:47;;;;;;;5.43;1.73;;;;;;;;;;5035578;28;20056;-67
2022/05/03 01:18:28;;;;;;;11.93;1.40;;;;;;;;;;5037711;28;20715;-67
2022/05/03 01:21:13;;;;;;;6.15;1.10;;;;;;;;;;5035706;28;20502;-67
2022/05/03 01:24:04;;;;;;;3.72;1.33;;;;;;;;;;5035694;28;20144;-68
2022/05/03 01:26:33;;;;;;;3.22;1.35;;;;;;;;;;5036404;28;20186;-67
2022/05/03 01:29:09;;;;;;;5.95;1.20;;;;;;;;;;5037531;28;20053;-67
2022/05/03 01:31:36;;;;;;;3.67;1.40;;;;;;;;;;5035004;28;20045;-66
2022/05/03 01:34:03;;;;;;;4.50;1.40;;;;;;;;;;5036644;28;20134;-67
2022/05/03 01:36:36;;;;;;;10.27;1.52;;;;;;;;;;5036373;28;20029;-66
2022/05/03 01:39:03;;;;;;;4.13;1.17;;;;;;;;;;5037729;28;20075;-66
2022/05/03 01:41:55;;;;;;;5.07;1.40;;;;;;;;;;5036356;28;20464;-66
2022/05/03 01:44:37;;;;;;;3.63;1.20;;;;;;;;;;4996213;28;20041;-65
2022/05/03 01:47:27;;;;;;;3.05;1.10;;;;;;;;;;5039416;28;20041;-66
2022/05/03 01:50:19;;;;;;;3.70;1.30;;;;;;;;;;5020235;28;20045;-67
2022/05/03 01:53:05;;;;;;;3.50;1.15;;;;;;;;;;5040703;28;20052;-65
2022/05/03 01:55:50;;;;;;;7.65;1.40;;;;;;;;;;5040815;28;20045;-66
2022/05/03 01:58:17;;;;;;;7.78;1.38;;;;;;;;;;5041568;28;20053;-66
2022/05/03 02:00:48;;;;;;;4.50;1.25;;;;;;;;;;5038875;28;20037;-66
2022/05/03 02:03:14;;;;;;;3.50;1.10;;;;;;;;;;5041144;28;20056;-66
2022/05/03 02:05:49;;;;;;;5.13;1.25;;;;;;;;;;5039968;28;20045;-65
2022/05/03 02:08:19;;;;;;;5.57;1.52;;;;;;;;;;5041117;28;20091;-68
2022/05/03 02:10:49;;;;;;;4.82;1.50;;;;;;;;;;5039809;28;20053;-66
2022/05/03 02:13:24;;;;;;;4.53;1.25;;;;;;;;;;5039835;28;20044;-66
2022/05/03 02:15:53;;;;;;;6.00;1.45;;;;;;;;;;5039267;28;20041;-66
2022/05/03 02:18:27;;;;;;;3.75;1.15;;;;;;;;;;5039898;28;20048;-66
2022/05/03 02:20:54;;;;;;;3.80;1.30;;;;;;;;;;5039453;28;21044;-67
2022/05/03 02:23:23;;;;;;;4.35;1.20;;;;;;;;;;5026988;28;20049;-66
2022/05/03 02:26:14;;;;;;;13.00;1.70;;;;;;;;;;5018967;28;20967;-66
2022/05/03 02:28:46;;;;;;;5.68;1.50;;;;;;;;;;5018458;28;20045;-66
2022/05/03 02:31:19;;;;;;;8.77;1.70;;;;;;;;;;5003075;28;20999;-65
2022/05/03 02:33:50;;;;;;;5.40;1.73;;;;;;;;;;5020780;28;20043;-67
2022/05/03 02:36:17;;;;;;;8.40;1.90;;;;;;;;;;5020170;28;20037;-67
2022/05/03 02:39:03;;;;;;;7.68;1.92;;;;;;;;;;5020425;28;20044;-67
2022/05/03 02:41:33;;;;;;;4.93;1.50;;;;;;;;;;5019087;28;20048;-65
2022/05/03 02:44:00;;;;;;;8.88;1.45;;;;;;;;;;5019917;28;20124;-64
2022/05/03 02:46:45;;;;;;;6.40;1.60;;;;;;;;;;5019642;28;20045;-69
2022/05/03 02:49:30;;;;;;;5.53;1.60;;;;;;;;;;5020281;28;20057;-66
2022/05/03 02:52:05;;;;;;;10.73;2.13;;;;;;;;;;5018874;28;20465;-67
2022/05/03 02:54:49;;;;;;;9.90;2.30;;;;;;;;;;5019128;28;20045;-65
2022/05/03 02:57:39;;;;;;;10.68;2.05;;;;;;;;;;5019130;28;20056;-65
2022/05/03 03:02:54;;;;;;;10.02;2.13;;;;;;;;;;5018490;28;20044;-65
2022/05/03 03:05:23;;;;;;;12.50;2.28;;;;;;;;;;5019047;28;20033;-65
2022/05/03 03:08:01;;;;;;;20.55;2.47;;;;;;;;;;5019203;28;20044;-66
2022/05/03 03:10:47;;;;;;;13.77;2.65;;;;;;;;;;5018446;28;20152;-66
2022/05/03 03:13:36;;;;;;;11.43;2.50;;;;;;;;;;5018624;28;20037;-65
2022/05/03 03:16:03;;;;;;;11.98;2.03;;;;;;;;;;4971887;28;20482;-66
2022/05/03 03:18:33;;;;;;;11.07;2.45;;;;;;;;;;5017603;28;20044;-66
2022/05/03 03:21:01;;;;;;;9.82;2.10;;;;;;;;;;5016955;28;20041;-66
2022/05/03 03:23:29;;;;;;;10.90;2.15;;;;;;;;;;5030209;28;20140;-66
2022/05/03 03:25:56;;;;;;;13.63;2.55;;;;;;;;;;5039147;28;20091;-66
2022/05/03 03:28:23;;;;;;;12.82;2.53;;;;;;;;;;5038434;28;20090;-67
2022/05/03 03:30:51;;;;;;;9.25;2.45;;;;;;;;;;5037516;28;20053;-67
2022/05/03 03:33:21;;;;;;;5.05;2.10;;;;;;;;;;5038617;28;20045;-66
2022/05/03 03:35:48;;;;;;;8.65;2.63;;;;;;;;;;5038194;28;20099;-66
2022/05/03 03:38:15;;;;;;;8.43;2.63;;;;;;;;;;5040496;28;20041;-65
2022/05/03 03:40:45;;;;;;;9.55;2.70;;;;;;;;;;5037134;28;20049;-65
2022/05/03 03:43:13;;;;;;;12.70;2.90;;;;;;;;;;5039115;28;20040;-65
2022/05/03 03:45:40;;;;;;;8.93;2.92;;;;;;;;;;5035015;28;20041;-65
2022/05/03 03:48:08;;;;;;;7.32;3.22;;;;;;;;;;5038472;28;20049;-66
2022/05/03 03:50:37;;;;;;;11.65;3.35;;;;;;;;;;5036869;28;20049;-65
2022/05/03 03:53:04;;;;;;;6.57;2.72;;;;;;;;;;5038717;28;20036;-65
2022/05/03 03:55:31;;;;;;;6.00;2.60;;;;;;;;;;5037774;28;20033;-66
2022/05/03 03:57:58;;;;;;;12.07;2.97;;;;;;;;;;5038722;28;20048;-65
2022/05/03 04:00:25;;;;;;;8.63;2.95;;;;;;;;;;5037855;28;20040;-65
2022/05/03 04:02:52;;;;;;;10.02;2.95;;;;;;;;;;5037566;28;20475;-65
2022/05/03 04:05:19;;;;;;;14.68;3.40;;;;;;;;;;5038041;28;20048;-65
2022/05/03 04:07:45;;;;;;;9.40;3.20;;;;;;;;;;5038201;28;20037;-65
2022/05/03 04:10:13;;;;;;;11.90;3.00;;;;;;;;;;5037853;28;20053;-65
2022/05/03 04:12:40;;;;;;;8.85;3.22;;;;;;;;;;5036820;28;20036;-65
2022/05/03 04:15:07;;;;;;;9.57;3.03;;;;;;;;;;5039320;28;20032;-65
2022/05/03 04:17:34;;;;;;;7.25;2.42;;;;;;;;;;5037399;28;20037;-65
2022/05/03 04:20:01;;;;;;;9.65;2.80;;;;;;;;;;5038953;28;20477;-65
2022/05/03 04:22:29;;;;;;;9.32;2.80;;;;;;;;;;5038621;28;20099;-65
2022/05/03 04:24:56;;;;;;;8.90;3.03;;;;;;;;;;5039496;28;20045;-65
2022/05/03 04:27:23;;;;;;;12.05;3.33;;;;;;;;;;5036816;28;20041;-64
2022/05/03 04:29:50;;;;;;;6.72;2.80;;;;;;;;;;5038728;28;20079;-65
2022/05/03 04:32:16;;;;;;;8.98;2.95;;;;;;;;;;5038538;28;20033;-64
2022/05/03 04:34:43;;;;;;;9.82;3.00;;;;;;;;;;5038100;28;20048;-66
2022/05/03 04:37:10;;;;;;;7.18;2.40;;;;;;;;;;5039014;28;20071;-65
2022/05/03 04:39:37;;;;;;;6.82;2.97;;;;;;;;;;5037117;28;20037;-65
2022/05/03 04:42:04;;;;;;;11.60;2.95;;;;;;;;;;5038019;28;20076;-64
2022/05/03 04:44:31;;;;;;;12.02;3.33;;;;;;;;;;5038512;28;20036;-65
2022/05/03 04:46:57;;;;;;;11.70;2.97;;;;;;;;;;5038545;28;20166;-66
2022/05/03 04:49:24;;;;;;;8.27;3.20;;;;;;;;;;5037335;28;20108;-66
2022/05/03 04:51:51;;;;;;;9.50;2.80;;;;;;;;;;5037499;28;20422;-66
2022/05/03 04:54:17;;;;;;;8.93;2.78;;;;;;;;;;5038017;28;20033;-66
2022/05/03 04:56:50;;;;;;;6.22;2.65;;;;;;;;;;5036845;28;20033;-67
2022/05/03 04:59:17;;;;;;;9.25;2.78;;;;;;;;;;5038475;28;20444;-66
2022/05/03 05:01:44;;;;;;;7.03;2.50;;;;;;;;;;5037004;28;20040;-67
2022/05/03 05:04:11;;;;;;;8.57;2.75;;;;;;;;;;5039447;28;20055;-65
2022/05/03 05:06:37;;;;;;;8.13;2.53;;;;;;;;;;5037926;28;20045;-66
2022/05/03 05:09:04;;;;;;;5.57;2.50;;;;;;;;;;5039025;28;20037;-66
2022/05/03 05:11:31;;;;;;;8.77;2.83;;;;;;;;;;5037003;28;20037;-65
2022/05/03 05:13:57;;;;;;;8.77;3.10;;;;;;;;;;5038931;28;20973;-66
2022/05/03 05:16:24;;;;;;;7.20;2.78;;;;;;;;;;5036318;28;20052;-65
2022/05/03 05:18:51;;;;;;;7.93;2.90;;;;;;;;;;5039612;28;20045;-66
2022/05/03 05:21:17;;;;;;;8.25;2.40;;;;;;;;;;5037234;28;20187;-66
2022/05/03 05:23:44;;;;;;;12.15;2.92;;;;;;;;;;5026898;28;20080;-66
2022/05/03 05:26:12;;;;;;;8.40;2.83;;;;;;;;;;5021987;28;20037;-65
2022/05/03 05:28:38;;;;;;;10.18;2.80;;;;;;;;;;5023419;28;20045;-66
2022/05/03 05:31:05;;;;;;;12.63;2.95;;;;;;;;;;5022082;28;20054;-65
2022/05/03 05:33:32;;;;;;;8.30;2.90;;;;;;;;;;5021135;28;20034;-66
2022/05/03 05:35:59;;;;;;;5.80;2.47;;;;;;;;;;5020695;28;20366;-66
2022/05/03 05:38:25;;;;;;;16.52;2.95;;;;;;;;;;5020885;28;20037;-67
2022/05/03 05:40:52;;;;;;;9.48;2.90;;;;;;;;;;5022251;28;20048;-66
2022/05/03 05:43:19;;;;;;;6.95;2.78;;;;;;;;;;5020980;28;20852;-66
2022/05/03 05:45:46;;;;;;;7.50;2.47;;;;;;;;;;5022196;28;20042;-66
2022/05/03 05:48:13;;;;;;;7.53;2.17;;;;;;;;;;5022078;28;20103;-67
2022/05/03 05:50:40;;;;;;;8.77;2.65;;;;;;;;;;5019408;28;20052;-65
2022/05/03 05:55:52;;;;;;;10.27;2.90;;;;;;;;;;5020987;28;20064;-66
2022/05/03 05:58:19;;;;;;;6.53;2.40;;;;;;;;;;5002770;28;20046;-65
2022/05/03 06:00:46;;;;;;;7.07;2.53;;;;;;;;;;5020226;28;20809;-66
2022/05/03 06:03:14;;;;;;;12.13;2.72;;;;;;;;;;5020655;28;20406;-66
2022/05/03 06:05:41;;;;;;;8.15;2.80;;;;;;;;;;5020191;28;20459;-65
2022/05/03 06:08:09;;;;;;;8.25;2.80;;;;;;;;;;5021353;28;21042;-65
2022/05/03 06:10:36;;;;;;;6.75;2.75;;;;;;;;;;5019625;28;20150;-65
2022/05/03 06:13:03;;;;;;;8.60;2.72;;;;;;;;;;5020833;28;20044;-67
2022/05/03 06:15:30;;;;;;;9.35;2.80;;;;;;;;;;5020156;28;20045;-66
2022/05/03 06:17:56;;;;;;;6.70;2.75;;;;;;;;;;5021103;28;20045;-66
2022/05/03 06:20:23;;;;;;;9.45;2.80;;;;;;;;;;5020086;28;20040;-66
2022/05/03 06:22:50;;;;;;;9.85;3.03;;;;;;;;;;5028340;28;20049;-65
2022/05/03 06:25:17;;;;;;;12.52;3.40;;;;;;;;;;5039845;28;20029;-66
2022/05/03 06:27:43;;;;;;;8.18;2.80;;;;;;;;;;5040863;28;20060;-66
2022/05/03 06:30:11;;;;;;;10.60;2.70;;;;;;;;;;5040968;28;20119;-66
2022/05/03 06:32:40;;;;;;;8.85;2.63;;;;;;;;;;5040188;28;20049;-66
2022/05/03 06:35:07;;;;;;;7.25;2.75;;;;;;;;;;5039010;28;20043;-66
2022/05/03 06:37:37;;;;;;;10.57;2.83;;;;;;;;;;5040664;28;20048;-66
2022/05/03 06:40:07;;;;;;;7.13;2.85;;;;;;;;;;5039945;28;20029;-64
2022/05/03 06:42:40;;;;;;;8.00;2.72;;;;;;;;;;5039645;28;20489;-65
2022/05/03 06:45:09;;;;;;;7.23;2.87;;;;;;;;;;5040606;28;20047;-66
2022/05/03 06:47:36;;;;;;;5.40;2.70;;;;;;;;;;5039830;28;20052;-65
2022/05/03 06:50:03;;;;;;;7.63;2.63;;;;;;;;;;5039856;28;20626;-66
2022/05/03 06:52:30;;;;;;;4.82;2.70;;;;;;;;;;5039354;28;20541;-65
2022/05/03 06:54:56;;;;;;;10.25;2.90;;;;;;;;;;5040756;28;20041;-66
2022/05/03 06:57:23;;;;;;;5.18;2.75;;;;;;;;;;5040870;28;20909;-66
2022/05/03 06:59:50;;;;;;;8.38;2.20;;;;;;;;;;5040921;28;20223;-65
2022/05/03 07:02:16;;;;;;;7.30;3.05;;;;;;;;;;5039835;28;20060;-65
2022/05/03 07:04:43;;;;;;;6.90;2.83;;;;;;;;;;5039806;28;20080;-65
2022/05/03 07:07:11;;;;;;;8.45;2.90;;;;;;;;;;5040263;28;20043;-65
2022/05/03 07:09:38;;;;;;;8.75;3.22;;;;;;;;;;5039058;28;20125;-65
2022/05/03 07:12:06;;;;;;;10.57;3.00;;;;;;;;;;5039486;28;20072;-66
2022/05/03 07:14:32;;;;;;;5.88;2.80;;;;;;;;;;5040832;28;20049;-65
2022/05/03 07:16:59;;;;;;;7.00;2.58;;;;;;;;;;5040935;28;20512;-65
2022/05/03 07:24:56;;;;;;;5.65;2.80;;;;;;;;;;5039315;28;20067;-65
2022/05/03 07:27:23;;;;;;;6.35;2.95;;;;;;;;;;5039812;28;20120;-66
2022/05/03 07:29:49;;;;;;;5.55;2.83;;;;;;;;;;5039640;28;20048;-65
2022/05/03 07:32:16;;;;;;;5.03;3.00;;;;;;;;;;5039343;28;20099;-66
2022/05/03 07:34:43;;;;;;;12.88;3.30;;;;;;;;;;5038578;28;20097;-66
2022/05/03 07:37:09;;;;;;;6.82;2.90;;;;;;;;;;5040567;28;20033;-65
2022/05/03 07:39:36;;;;;;;6.32;2.75;;;;;;;;;;5041110;28;20067;-65
2022/05/03 07:42:03;;;;;;;8.05;3.13;;;;;;;;;;5040724;28;20465;-65
2022/05/03 07:44:29;;;;;;;5.93;3.00;;;;;;;;;;5039924;28;20049;-65
2022/05/03 07:46:57;;;;;;;7.38;2.92;;;;;;;;;;5040684;28;20053;-65
2022/05/03 07:49:24;;;;;;;5.82;3.30;;;;;;;;;;5039186;28;20060;-65
2022/05/03 07:51:50;;;;;;;10.57;3.72;;;;;;;;;;5038937;28;20037;-66
2022/05/03 07:54:17;;;;;;;6.85;3.05;;;;;;;;;;5040436;28;20036;-65
2022/05/03 07:56:44;;;;;;;9.48;3.40;;;;;;;;;;5039624;28;20401;-65
2022/05/03 07:59:10;;;;;;;10.68;3.42;;;;;;;;;;5040022;28;20068;-65
2022/05/03 08:01:40;;;;;;;8.85;3.35;;;;;;;;;;5037670;28;20056;-65
2022/05/03 08:04:07;;;;;;;11.38;3.50;;;;;;;;;;5038918;28;20067;-65
2022/05/03 08:06:35;;;;;;;8.30;3.20;;;;;;;;;;5039922;28;20052;-65
2022/05/03 08:09:02;;;;;;;7.75;3.88;;;;;;;;;;5039538;28;20503;-65
2022/05/03 08:11:29;;;;;;;6.90;3.50;;;;;;;;;;5038078;28;20053;-65
2022/05/03 08:13:55;;;;;;;8.20;3.40;;;;;;;;;;5040226;28;20488;-65
2022/05/03 08:16:23;;;;;;;12.68;4.07;;;;;;;;;;5038738;28;20501;-65
2022/05/03 08:18:50;;;;;;;13.07;3.88;;;;;;;;;;5038519;28;20037;-65
2022/05/03 08:21:17;;;;;;;12.32;4.32;;;;;;;;;;5038216;28;20043;-65
2022/05/03 08:23:43;;;;;;;10.52;4.55;;;;;;;;;;5037925;28;20285;-65
2022/05/03 08:26:11;;;;;;;9.40;3.70;;;;;;;;;;5038190;28;20053;-65
2022/05/03 08:28:38;;;;;;;12.23;5.10;;;;;;;;;;5038281;28;21654;-65
2022/05/03 08:31:04;;;;;;;11.23;4.40;;;;;;;;;;5036966;28;20050;-65
2022/05/03 08:33:31;;;;;;;10.60;4.57;;;;;;;;;;5037117;28;20048;-65
2022/05/03 08:35:58;;;;;;;13.60;5.45;;;;;;;;;;5037713;28;20120;-65
2022/05/03 08:43:58;;;;;;;14.05;4.78;;;;;;;;;;5037984;28;20076;-64
2022/05/03 08:46:25;;;;;;;8.70;4.18;;;;;;;;;;5037205;28;20171;-65
2022/05/03 08:48:57;;;;;;;16.52;4.97;;;;;;;;;;5039019;28;20040;-64
2022/05/03 08:51:24;;;;;;;13.30;4.90;;;;;;;;;;5037329;28;20917;-65
2022/05/03 08:53:51;;;;;;;14.57;4.53;;;;;;;;;;5037547;28;20043;-66
2022/05/03 08:56:21;;;;;;;12.60;4.22;;;;;;;;;;5037247;28;20033;-65
2022/05/03 08:58:48;;;;;;;9.75;4.72;;;;;;;;;;5037924;28;20041;-66
2022/05/03 09:01:15;;;;;;;11.50;4.97;;;;;;;;;;5036933;28;20135;-64
2022/05/03 09:03:42;;;;;;;12.77;4.72;;;;;;;;;;5036745;28;20048;-63
2022/05/03 09:06:09;;;;;;;10.48;4.78;;;;;;;;;;5037947;28;20518;-64
2022/05/03 09:08:36;;;;;;;10.07;5.00;;;;;;;;;;5036197;28;20441;-64
2022/05/03 09:11:15;;;;;;;9.70;4.47;;;;;;;;;;5037182;28;20045;-63
2022/05/03 09:13:43;;;;;;;8.98;4.68;;;;;;;;;;5036388;28;20037;-64
2022/05/03 09:16:20;;;;;;;17.15;5.40;;;;;;;;;;5037749;28;20037;-64
2022/05/03 09:18:48;;;;;;;11.55;5.10;;;;;;;;;;5036880;28;20037;-64
2022/05/03 09:24:25;;;;;;;16.48;5.55;;;;;;;;;;5011474;28;20144;-64
2022/05/03 09:26:54;;;;;;;10.70;4.80;;;;;;;;;;5037189;28;20041;-64
2022/05/03 09:29:22;;;;;;;9.07;4.53;;;;;;;;;;5035704;28;20037;-65
2022/05/03 09:31:50;;;;;;;10.80;4.75;;;;;;;;;;5037313;28;20074;-65
2022/05/03 09:34:19;;;;;;;10.90;5.10;;;;;;;;;;5037553;28;20615;-65
2022/05/03 09:36:53;;;;;;;9.38;5.03;;;;;;;;;;5036769;28;20037;-65
2022/05/03 09:39:27;;;;;;;13.90;4.88;;;;;;;;;;5037174;28;20140;-65
2022/05/03 09:42:24;;;;;;;14.40;5.22;;;;;;;;;;5036619;28;20060;-65
2022/05/03 09:44:53;;;;;;;9.00;5.13;;;;;;;;;;5019967;28;20037;-65
2022/05/03 09:47:21;;;;;;;9.52;5.00;;;;;;;;;;5037378;28;20072;-63
2022/05/03 09:49:47;;;;;;;11.60;4.75;;;;;;;;;;5037209;28;20053;-63
2022/05/03 09:52:29;;;;;;;12.35;4.68;;;;;;;;;;5037555;28;20048;-63
2022/05/03 09:54:59;;;;;;;14.50;4.63;;;;;;;;;;5014730;28;20044;-63
2022/05/03 09:57:28;;;;;;;9.60;4.60;;;;;;;;;;5036281;28;20029;-64
2022/05/03 09:59:56;;;;;;;8.57;5.22;;;;;;;;;;5035345;28;20049;-63
2022/05/03 10:02:24;;;;;;;7.85;4.50;;;;;;;;;;5036174;28;20354;-63
2022/05/03 10:04:52;;;;;;;10.25;5.00;;;;;;;;;;5036423;28;20063;-63
2022/05/03 10:07:19;;;;;;;9.57;4.45;;;;;;;;;;5036620;28;20037;-63
2022/05/03 10:09:46;;;;;;;16.08;4.95;;;;;;;;;;5040616;28;20163;-63
2022/05/03 10:12:13;;;;;;;8.82;5.05;;;;;;;;;;5040742;28;20041;-63
2022/05/03 10:14:41;;;;;;;8.75;4.70;;;;;;;;;;5040141;28;20667;-63
2022/05/03 10:20:39;;;;;;;10.57;5.10;;;;;;;;;;5041092;28;20080;-64
2022/05/03 10:23:36;;;;;;;8.57;4.80;;;;;;;;;;5039014;28;20136;-64
2022/05/03 10:26:07;;;;;;;11.07;4.55;;;;;;;;;;5030394;28;20049;-64
2022/05/03 10:29:09;;;;;;;8.90;4.50;;;;;;;;;;5039285;28;20441;-64
2022/05/03 10:31:54;;;;;;;11.02;5.05;;;;;;;;;;5002781;28;20053;-64
2022/05/03 10:34:48;;;;;;;12.77;5.57;;;;;;;;;;5039847;28;20064;-64
2022/05/03 10:37:14;;;;;;;;;;;;;;;;;;5037343;28;20577;-64
2022/05/03 10:39:46;;;;;;;10.52;4.72;;;;;;;;;;5040363;28;20369;-64
2022/05/03 10:42:16;;;;;;;12.52;5.50;;;;;;;;;;5038285;28;20460;-64
2022/05/03 10:44:43;;;;;;;11.35;4.60;;;;;;;;;;5039095;28;20159;-65
2022/05/03 10:47:10;;;;;;;7.00;4.22;;;;;;;;;;5039857;28;20048;-64
2022/05/03 10:49:57;;;;;;;9.63;4.90;;;;;;;;;;5038363;28;20052;-65
2022/05/03 10:52:24;;;;;;;10.00;4.97;;;;;;;;;;5007505;28;20032;-64
2022/05/03 10:55:08;;;;;;;8.05;4.68;;;;;;;;;;5040372;28;20517;-63
2022/05/03 10:57:53;;;;;;;10.77;4.82;;;;;;;;;;5040574;28;20033;-63
2022/05/03 11:00:38;;;;;;;10.25;5.28;;;;;;;;;;5040188;28;20048;-63
2022/05/03 11:03:23;;;;;;;11.32;4.53;;;;;;;;;;5039264;28;20119;-63
2022/05/03 11:06:08;;;;;;;10.32;4.32;;;;;;;;;;5039222;28;20041;-62
2022/05/03 11:08:36;;;;;;;11.93;4.97;;;;;;;;;;5039953;28;20049;-62
2022/05/03 11:11:02;;;;;;;8.48;4.80;;;;;;;;;;5039502;28;20092;-62
2022/05/03 11:13:42;;;;;;;12.55;4.85;;;;;;;;;;5038902;28;20037;-62
2022/05/03 11:16:25;;;;;;;8.55;4.82;;;;;;;;;;5039648;28;20041;-62
2022/05/03 11:18:52;;;;;;;12.38;5.15;;;;;;;;;;5039329;28;20049;-62
2022/05/03 11:21:19;;;;;;;9.75;4.55;;;;;;;;;;5037692;28;21860;-62
2022/05/03 11:23:50;;;;;;;9.52;5.07;;;;;;;;;;5039253;28;20102;-63
2022/05/03 11:26:21;;;;;;;15.75;5.45;;;;;;;;;;5038488;28;21883;-62
2022/05/03 11:28:50;;;;;;;13.80;5.05;;;;;;;;;;5039533;28;20048;-63
2022/05/03 11:31:18;;;;;;;12.38;5.32;;;;;;;;;;5038605;28;20902;-64
2022/05/03 11:33:49;;;;;;;11.25;5.47;;;;;;;;;;5038479;28;20055;-64
2022/05/03 11:36:15;;;;;;;12.18;4.82;;;;;;;;;;5039411;28;20079;-64
2022/05/03 11:38:42;;;;;;;11.30;4.90;;;;;;;;;;5034954;28;20052;-64
2022/05/03 11:41:10;;;;;;;7.72;4.93;;;;;;;;;;5037168;28;20508;-64
2022/05/03 11:43:37;;;;;;;10.48;5.63;;;;;;;;;;5037861;28;20033;-64
2022/05/03 11:46:04;;;;;;;17.55;5.10;;;;;;;;;;5033578;28;20041;-64
2022/05/03 11:48:31;;;;;;;11.23;5.18;;;;;;;;;;5037564;28;20043;-64
2022/05/03 11:56:29;;;;;;;9.70;4.90;;;;;;;;;;5036988;28;20521;-64
2022/05/03 11:58:56;;;;;;;8.50;5.03;;;;;;;;;;5038843;28;20065;-63
2022/05/03 12:01:23;;;;;;;10.50;5.57;;;;;;;;;;5036309;28;20592;-64
2022/05/03 12:03:51;;;;;;;10.52;5.22;;;;;;;;;;5038834;28;20492;-63
2022/05/03 12:06:19;;;;;;;9.68;5.05;;;;;;;;;;5020657;28;20997;-63
2022/05/03 12:08:47;;;;;;;10.45;5.47;;;;;;;;;;5019461;28;20151;-63
2022/05/03 12:11:19;;;;;;;12.38;5.80;;;;;;;;;;5036842;28;20057;-63
2022/05/03 12:13:46;;;;;;;11.80;5.60;;;;;;;;;;5037532;28;20056;-64
2022/05/03 12:16:16;;;;;;;20.05;5.75;;;;;;;;;;5019992;28;20058;-65
2022/05/03 12:18:43;;;;;;;13.02;5.40;;;;;;;;;;5037449;28;20033;-64
2022/05/03 12:21:14;;;;;;;17.08;5.57;;;;;;;;;;5038439;28;20048;-63
2022/05/03 12:23:42;;;;;;;12.20;6.10;;;;;;;;;;5034824;28;20380;-64
2022/05/03 12:26:26;;;;;;;14.27;5.80;;;;;;;;;;5038646;28;20094;-64
2022/05/03 12:28:54;;;;;;;15.85;6.20;;;;;;;;;;5038097;28;21782;-64
2022/05/03 12:31:23;;;;;;;10.75;5.45;;;;;;;;;;5036470;28;20057;-64
2022/05/03 12:33:52;;;;;;;11.00;5.75;;;;;;;;;;5037825;28;20033;-63
2022/05/03 12:36:38;;;;;;;15.88;5.93;;;;;;;;;;5038338;28;20203;-63
2022/05/03 12:39:25;;;;;;;12.73;5.75;;;;;;;;;;5039810;28;20506;-64
2022/05/03 12:41:55;;;;;;;19.65;6.05;;;;;;;;;;5038108;28;20521;-64
2022/05/03 12:44:22;;;;;;;22.55;6.57;;;;;;;;;;5038020;28;20068;-63
2022/05/03 12:46:52;;;;;;;13.82;6.38;;;;;;;;;;5038899;28;20561;-63
2022/05/03 12:49:21;;;;;;;19.05;6.05;;;;;;;;;;5038299;28;20045;-63
2022/05/03 12:51:49;;;;;;;13.70;5.57;;;;;;;;;;5036986;28;20037;-64
2022/05/03 12:54:16;;;;;;;21.42;6.40;;;;;;;;;;5038879;28;20067;-65
2022/05/03 12:59:29;;;;;;;15.88;6.47;;;;;;;;;;5038212;28;20048;-65
2022/05/03 13:01:57;;;;;;;16.52;5.75;;;;;;;;;;5038718;28;20055;-64
2022/05/03 13:04:24;;;;;;;13.75;6.90;;;;;;;;;;5038344;28;20040;-65
2022/05/03 13:06:52;;;;;;;16.45;5.97;;;;;;;;;;5039323;28;20900;-65
2022/05/03 13:09:19;;;;;;;12.88;6.30;;;;;;;;;;5037844;28;20064;-64
2022/05/03 13:11:46;;;;;;;14.15;5.88;;;;;;;;;;5037100;28;20083;-65
2022/05/03 13:14:14;;;;;;;15.40;6.60;;;;;;;;;;5037335;28;20658;-65
2022/05/03 13:16:41;;;;;;;23.02;7.63;;;;;;;;;;5038609;28;20056;-65
2022/05/03 13:19:08;;;;;;;22.42;6.90;;;;;;;;;;5039708;28;20052;-65
2022/05/03 13:21:36;;;;;;;15.52;6.47;;;;;;;;;;5037702;28;20417;-65
2022/05/03 13:24:09;;;;;;;18.15;6.38;;;;;;;;;;5038381;28;20174;-65
2022/05/03 13:26:36;;;;;;;15.02;6.63;;;;;;;;;;5038192;28;20075;-63
2022/05/03 13:29:08;;;;;;;14.13;6.43;;;;;;;;;;5039323;28;20041;-65
2022/05/03 13:31:34;;;;;;;13.80;5.88;;;;;;;;;;5037201;28;20091;-63
2022/05/03 13:34:01;;;;;;;18.92;6.60;;;;;;;;;;5038613;28;20049;-64
2022/05/03 13:41:59;;;;;;;18.30;6.93;;;;;;;;;;5037661;28;20043;-65
2022/05/03 13:44:25;;;;;;;12.45;6.47;;;;;;;;;;5023857;28;20546;-67
2022/05/03 13:46:52;;;;;;;14.00;6.82;;;;;;;;;;5042514;28;20387;-65
2022/05/03 13:49:20;;;;;;;14.73;6.88;;;;;;;;;;5040690;28;20482;-64
2022/05/03 13:51:47;;;;;;;16.17;6.95;;;;;;;;;;5033833;28;20071;-66
2022/05/03 13:54:14;;;;;;;18.13;6.60;;;;;;;;;;5042078;28;20037;-64
2022/05/03 13:56:40;;;;;;;12.10;6.47;;;;;;;;;;5041468;28;20071;-65
2022/05/03 13:59:07;;;;;;;16.48;6.97;;;;;;;;;;5041702;28;20037;-65
2022/05/03 14:01:34;;;;;;;18.45;6.57;;;;;;;;;;5040382;28;20052;-65
2022/05/03 14:04:02;;;;;;;25.40;6.63;;;;;;;;;;5041529;28;21075;-65
2022/05/03 14:06:29;;;;;;;16.42;6.30;;;;;;;;;;5023797;28;20071;-66
2022/05/03 14:08:56;;;;;;;12.82;6.68;;;;;;;;;;5041800;28;20068;-66
2022/05/03 14:11:23;;;;;;;15.75;5.68;;;;;;;;;;5040152;28;20045;-66
2022/05/03 14:13:49;;;;;;;16.52;6.05;;;;;;;;;;5041319;28;20894;-66
2022/05/03 14:16:17;;;;;;;12.57;6.05;;;;;;;;;;5023830;28;20037;-66
2022/05/03 14:18:44;;;;;;;16.98;6.35;;;;;;;;;;5041114;28;20037;-66
2022/05/03 14:21:11;;;;;;;16.42;6.38;;;;;;;;;;5040857;28;20072;-65
2022/05/03 14:23:39;;;;;;;11.57;5.30;;;;;;;;;;5040434;28;20053;-66
2022/05/03 14:26:06;;;;;;;13.88;6.22;;;;;;;;;;5041301;28;20037;-65
2022/05/03 14:28:32;;;;;;;20.27;6.22;;;;;;;;;;5042361;28;20045;-65
2022/05/03 14:30:59;;;;;;;14.88;5.78;;;;;;;;;;5040756;28;20049;-65
2022/05/03 14:33:26;;;;;;;16.67;6.63;;;;;;;;;;5040674;28;20052;-65
2022/05/03 14:35:53;;;;;;;16.10;5.90;;;;;;;;;;5042555;28;20048;-65
2022/05/03 14:38:19;;;;;;;10.10;5.13;;;;;;;;;;5023594;28;20052;-65
2022/05/03 14:40:46;;;;;;;21.45;6.43;;;;;;;;;;5041868;28;20033;-65
2022/05/03 14:43:13;;;;;;;26.35;6.43;;;;;;;;;;5040946;28;20029;-65
2022/05/03 14:45:40;;;;;;;14.65;5.63;;;;;;;;;;5040892;28;20090;-65
2022/05/03 14:48:06;;;;;;;15.25;5.63;;;;;;;;;;5041929;28;20509;-65
2022/05/03 14:50:34;;;;;;;13.88;5.43;;;;;;;;;;5040472;28;20048;-65
2022/05/03 14:53:00;;;;;;;15.77;5.43;;;;;;;;;;5040936;28;20049;-67
2022/05/03 14:55:27;;;;;;;13.60;5.38;;;;;;;;;;5022889;28;20229;-66
2022/05/03 15:03:24;;;;;;;14.07;4.95;;;;;;;;;;5040853;28;20047;-64
2022/05/03 15:05:50;;;;;;;10.70;4.93;;;;;;;;;;5040466;28;20075;-64
2022/05/03 15:08:17;;;;;;;14.88;5.13;;;;;;;;;;5041970;28;20056;-65
2022/05/03 15:10:44;;;;;;;10.65;5.78;;;;;;;;;;5041254;28;20505;-65
2022/05/03 15:13:12;;;;;;;13.90;4.93;;;;;;;;;;5039821;28;20951;-65
2022/05/03 15:15:40;;;;;;;16.58;4.85;;;;;;;;;;5041145;28;20040;-65
2022/05/03 15:18:07;;;;;;;9.20;4.15;;;;;;;;;;5041767;28;20117;-65
2022/05/03 15:20:34;;;;;;;13.00;3.85;;;;;;;;;;5041460;28;20037;-65
2022/05/03 15:25:47;;;;;;;8.65;3.75;;;;;;;;;;5043599;28;20079;-65
2022/05/03 15:28:14;;;;;;;10.43;3.42;;;;;;;;;;5025370;28;20155;-65
2022/05/03 15:30:42;;;;;;;5.38;3.00;;;;;;;;;;5042179;28;20587;-65
2022/05/03 15:33:09;;;;;;;11.23;4.05;;;;;;;;;;5043523;28;20041;-65
2022/05/03 15:35:36;;;;;;;7.97;3.55;;;;;;;;;;5037201;28;20513;-65
2022/05/03 15:38:03;;;;;;;8.98;3.75;;;;;;;;;;5001740;28;20056;-66
2022/05/03 15:40:29;;;;;;;11.45;3.42;;;;;;;;;;5040382;28;20045;-65